| time (UTC) | temp F | wind direction | speed MPH | gust MPH | rain 1hr in | rain 24hr in | rain mn in | humidity % | barometer mb |
| 20260508003106 | 57 | 317 | 0.0 | 1.0 | 0.00 | 0.00 | 0.00 | 81 | 1013.2 |
| 20260508001550 | 57 | 305 | 0.0 | 1.0 | 0.00 | 0.00 | 0.00 | 81 | 1013.3 |
| 20260508000051 | 57 | 312 | 0.0 | 1.0 | 0.00 | 0.00 | 0.00 | 80 | 1013.2 |
| 20260507234549 | 57 | 328 | 0.0 | 2.0 | 0.00 | 0.00 | 0.00 | 80 | 1013.4 |
| 20260507233048 | 57 | 330 | 0.0 | 2.0 | 0.00 | 0.00 | 0.00 | 79 | 1013.5 |
| 20260507231559 | 57 | 278 | 0.0 | 1.0 | 0.00 | 0.00 | 0.00 | 77 | 1013.5 |
| 20260507230044 | 57 | 312 | 0.0 | 1.0 | 0.00 | 0.00 | 0.00 | 78 | 1013.4 |
| 20260507224556 | 57 | 309 | 0.0 | 1.0 | 0.00 | 0.00 | 0.00 | 78 | 1013.4 |
| 20260507223040 | 57 | 281 | 0.0 | 4.0 | 0.00 | 0.00 | 0.00 | 77 | 1013.3 |
| 20260507221539 | 56 | 20 | 0.0 | 3.0 | 0.00 | 0.00 | 0.00 | 79 | 1013.2 |
| 20260507220036 | 56 | 295 | 0.0 | 1.0 | 0.00 | 0.00 | 0.00 | 81 | 1013.3 |
| 20260507214535 | 56 | 283 | 0.0 | 1.0 | 0.00 | 0.00 | 0.00 | 80 | 1013.2 |
| 20260507213035 | 56 | 319 | 0.0 | 4.0 | 0.00 | 0.00 | 0.00 | 80 | 1013.1 |
| 20260507211537 | 56 | 320 | 1.0 | 4.0 | 0.00 | 0.00 | 0.00 | 79 | 1013.2 |
| 20260507210036 | 56 | 335 | 1.0 | 2.0 | 0.00 | 0.00 | 0.00 | 80 | 1013.2 |
| 20260507204536 | 56 | 321 | 0.0 | 3.0 | 0.00 | 0.00 | 0.00 | 80 | 1013.0 |
| 20260507203032 | 57 | 330 | 0.0 | 2.0 | 0.00 | 0.00 | 0.00 | 79 | 1012.8 |
| 20260507201534 | 58 | 293 | 0.0 | 1.0 | 0.00 | 0.00 | 0.00 | 78 | 1012.6 |
| 20260507200037 | 58 | 304 | 1.0 | 3.0 | 0.00 | 0.00 | 0.00 | 76 | 1012.5 |
| 20260507194531 | 59 | 87 | 0.0 | 2.0 | 0.00 | 0.00 | 0.00 | 75 | 1012.4 |
| 20260507193032 | 59 | 280 | 0.0 | 4.0 | 0.00 | 0.00 | 0.00 | 76 | 1012.1 |
| 20260507191531 | 59 | 321 | 0.0 | 2.0 | 0.00 | 0.00 | 0.00 | 77 | 1011.7 |
| 20260507190037 | 59 | 314 | 0.0 | 3.0 | 0.00 | 0.00 | 0.00 | 77 | 1011.8 |
| 20260507184536 | 60 | 319 | 0.0 | 2.0 | 0.00 | 0.00 | 0.00 | 76 | 1011.6 |
| 20260507183027 | 61 | 288 | 0.0 | 2.0 | 0.00 | 0.00 | 0.00 | 74 | 1011.5 |
| 20260507181528 | 62 | 320 | 0.0 | 1.0 | 0.00 | 0.00 | 0.00 | 68 | 1011.4 |
| 20260507180029 | 63 | 269 | 0.0 | 1.0 | 0.00 | 0.00 | 0.00 | 69 | 1011.3 |
| 20260507174530 | 63 | 257 | 1.0 | 3.0 | 0.00 | 0.00 | 0.00 | 67 | 1011.3 |
| 20260507173031 | 64 | 250 | 0.0 | 2.0 | 0.00 | 0.00 | 0.00 | 66 | 1011.2 |
| 20260507171524 | 65 | 216 | 1.0 | 3.0 | 0.00 | 0.00 | 0.00 | 65 | 1011.1 |
| 20260507170024 | 66 | 284 | 0.0 | 2.0 | 0.00 | 0.00 | 0.00 | 62 | 1011.2 |
| 20260507164524 | 67 | 233 | 0.0 | 2.0 | 0.00 | 0.00 | 0.00 | 56 | 1011.0 |
| 20260507163023 | 68 | 250 | 0.0 | 5.0 | 0.00 | 0.00 | 0.00 | 53 | 1011.0 |
| 20260507161523 | 70 | 204 | 2.0 | 5.0 | 0.00 | 0.00 | 0.00 | 50 | 1011.1 |
| 20260507160025 | 70 | 268 | 0.0 | 3.0 | 0.00 | 0.00 | 0.00 | 51 | 1011.0 |
| 20260507154522 | 70 | 207 | 0.0 | 4.0 | 0.00 | 0.00 | 0.00 | 53 | 1011.0 |
| 20260507153020 | 70 | 212 | 0.0 | 5.0 | 0.00 | 0.00 | 0.00 | 52 | 1010.9 |
| 20260507151519 | 70 | 252 | 0.0 | 5.0 | 0.00 | 0.00 | 0.00 | 54 | 1010.8 |
| 20260507150020 | 70 | 229 | 1.0 | 5.0 | 0.00 | 0.00 | 0.00 | 55 | 1011.0 |
| 20260507144516 | 69 | 145 | 2.0 | 5.0 | 0.00 | 0.00 | 0.00 | 55 | 1011.0 |
| 20260507143015 | 69 | 22 | 0.0 | 5.0 | 0.00 | 0.00 | 0.00 | 53 | 1011.2 |
| 20260507141513 | 69 | 116 | 0.0 | 6.0 | 0.00 | 0.00 | 0.00 | 55 | 1011.3 |
| 20260507140013 | 69 | 282 | 2.0 | 6.0 | 0.00 | 0.00 | 0.00 | 55 | 1011.3 |
| 20260507134518 | 69 | 117 | 1.0 | 5.0 | 0.00 | 0.00 | 0.00 | 55 | 1011.4 |
| 20260507133010 | 69 | 268 | 2.0 | 6.0 | 0.00 | 0.00 | 0.00 | 55 | 1011.5 |
| 20260507131509 | 68 | 141 | 2.0 | 6.0 | 0.00 | 0.00 | 0.00 | 57 | 1011.6 |
| 20260507130009 | 68 | 178 | 3.0 | 7.0 | 0.00 | 0.00 | 0.00 | 58 | 1011.7 |
| 20260507124506 | 68 | 143 | 2.0 | 9.0 | 0.00 | 0.00 | 0.00 | 59 | 1011.8 |
| 20260507123005 | 68 | 316 | 1.0 | 6.0 | 0.00 | 0.00 | 0.00 | 58 | 1011.9 |
| 20260507121505 | 67 | 235 | 3.0 | 8.0 | 0.00 | 0.00 | 0.00 | 60 | 1011.9 |
| 20260507120005 | 67 | 173 | 3.0 | 7.0 | 0.00 | 0.00 | 0.00 | 59 | 1012.1 |
| 20260507114503 | 67 | 65 | 1.0 | 9.0 | 0.00 | 0.00 | 0.00 | 59 | 1012.1 |
| 20260507113001 | 67 | 188 | 1.0 | 3.0 | 0.00 | 0.00 | 0.00 | 60 | 1012.4 |
| 20260507111558 | 65 | 261 | 2.0 | 8.0 | 0.00 | 0.00 | 0.00 | 62 | 1012.4 |
| 20260507110055 | 63 | 127 | 1.0 | 5.0 | 0.00 | 0.00 | 0.00 | 63 | 1012.7 |
| 20260507104555 | 64 | 117 | 1.0 | 8.0 | 0.00 | 0.00 | 0.00 | 66 | 1012.8 |
| 20260507103056 | 64 | 150 | 2.0 | 8.0 | 0.00 | 0.00 | 0.00 | 68 | 1012.9 |
| 20260507101554 | 64 | 168 | 2.0 | 8.0 | 0.00 | 0.00 | 0.00 | 67 | 1013.0 |
| 20260507100056 | 64 | 91 | 2.0 | 7.0 | 0.00 | 0.00 | 0.00 | 64 | 1013.0 |
| 20260507094554 | 64 | 117 | 2.0 | 6.0 | 0.00 | 0.00 | 0.00 | 69 | 1012.9 |
| 20260507093047 | 63 | 129 | 3.0 | 7.0 | 0.00 | 0.00 | 0.00 | 68 | 1012.8 |
| 20260507091548 | 62 | 81 | 0.0 | 3.0 | 0.00 | 0.00 | 0.00 | 68 | 1012.8 |
| 20260507090044 | 62 | 97 | 2.0 | 6.0 | 0.00 | 0.00 | 0.00 | 73 | 1012.9 |
| 20260507084548 | 61 | 219 | 2.0 | 5.0 | 0.00 | 0.00 | 0.00 | 75 | 1012.8 |
| 20260507083048 | 61 | 127 | 2.0 | 6.0 | 0.00 | 0.00 | 0.00 | 74 | 1012.8 |
| 20260507081540 | 60 | 211 | 2.0 | 5.0 | 0.00 | 0.00 | 0.00 | 75 | 1012.9 |
| 20260507080053 | 59 | 162 | 0.0 | 3.0 | 0.00 | 0.00 | 0.00 | 77 | 1012.8 |
| 20260507074544 | 58 | 120 | 0.0 | 3.0 | 0.00 | 0.00 | 0.00 | 78 | 1012.8 |
| 20260507073039 | 59 | 120 | 1.0 | 2.0 | 0.00 | 0.00 | 0.00 | 76 | 1012.9 |
| 20260507071553 | 60 | 79 | 0.0 | 3.0 | 0.00 | 0.00 | 0.00 | 76 | 1012.7 |
| 20260507070036 | 58 | 58 | 0.0 | 0.0 | 0.00 | 0.00 | 0.00 | 82 | 1012.7 |
| 20260507064530 | 55 | 336 | 0.0 | 1.0 | 0.00 | 0.12 | 0.00 | 83 | 1012.6 |
| 20260507063032 | 55 | 313 | 0.0 | 1.0 | 0.00 | 0.12 | 0.00 | 84 | 1012.5 |
| 20260507061528 | 55 | 323 | 0.0 | 2.0 | 0.00 | 0.12 | 0.00 | 82 | 1012.4 |
| 20260507060026 | 54 | 281 | 0.0 | 2.0 | 0.00 | 0.12 | 0.00 | 83 | 1012.3 |
| 20260507054523 | 52 | 314 | 0.0 | 1.0 | 0.00 | 0.17 | 0.00 | 86 | 1012.2 |
| 20260507053024 | 50 | 340 | 0.0 | 3.0 | 0.00 | 0.17 | 0.00 | 88 | 1012.1 |
| 20260507051520 | 50 | 290 | 0.0 | 4.0 | 0.00 | 0.17 | 0.00 | 90 | 1011.9 |
| 20260507050019 | 49 | 319 | 0.0 | 3.0 | 0.00 | 0.25 | 0.00 | 92 | 1011.8 |
| 20260507044516 | 48 | 307 | 0.0 | 1.0 | 0.00 | 0.25 | 0.00 | 94 | 1011.4 |
| 20260507043014 | 47 | 292 | 0.0 | 3.0 | 0.00 | 0.25 | 0.00 | 94 | 1011.3 |
| 20260507041512 | 47 | 296 | 0.0 | 1.0 | 0.00 | 0.25 | 0.00 | 95 | 1011.1 |
| 20260507040013 | 48 | 314 | 0.0 | 0.0 | 0.00 | 0.28 | 0.00 | 94 | 1011.0 |
| 20260507034507 | 48 | 314 | 0.0 | 0.0 | 0.00 | 0.28 | 0.00 | 94 | 1010.9 |
| 20260507033007 | 48 | 314 | 0.0 | 0.0 | 0.00 | 0.28 | 0.00 | 94 | 1010.7 |
| 20260507031505 | 49 | 312 | 0.0 | 1.0 | 0.00 | 0.28 | 0.00 | 93 | 1010.8 |
| 20260507030005 | 49 | 322 | 0.0 | 3.0 | 0.00 | 0.28 | 0.00 | 93 | 1010.8 |
| 20260507024502 | 49 | 312 | 0.0 | 2.0 | 0.00 | 0.28 | 0.00 | 92 | 1010.8 |
| 20260507023103 | 50 | 323 | 0.0 | 2.0 | 0.00 | 0.28 | 0.00 | 92 | 1010.9 |
| 20260507021602 | 50 | 320 | 0.0 | 2.0 | 0.00 | 0.28 | 0.00 | 92 | 1010.8 |
| 20260507020104 | 50 | 308 | 0.0 | 1.0 | 0.00 | 0.28 | 0.00 | 91 | 1010.8 |
| 20260507014607 | 51 | 300 | 0.0 | 1.0 | 0.00 | 0.28 | 0.00 | 90 | 1010.8 |
| 20260507013057 | 51 | 325 | 0.0 | 1.0 | 0.00 | 0.28 | 0.00 | 90 | 1010.8 |
| 20260507011603 | 51 | 331 | 0.0 | 2.0 | 0.00 | 0.28 | 0.00 | 91 | 1010.8 |
| 20260507010056 | 51 | 311 | 0.0 | 3.0 | 0.00 | 0.28 | 0.00 | 90 | 1010.7 |
| 20260507004552 | 51 | 319 | 1.0 | 3.0 | 0.00 | 0.37 | 0.00 | 90 | 1010.7 |